Terminal Aerodrome Forecast
Issued by NWS North Platte, NE

Home | Current Version | Previous Version | Graphics & Text | Print | Product List | Glossary On
Versions: 1 2 3 4 5 6 7 8 9 10 11 12
401
FTUS43 KLBF 251120
TAFVTN
TAF
KVTN 251120Z 2512/2612 22006KT P6SM SCT250
     FM251800 24009KT P6SM BKN100 OVC250
     FM252100 25009KT P6SM SCT100 BKN250
     FM260000 23006KT P6SM BKN250=

USA.gov is the U.S. government's official web portal to all federal, state and local government web resources and services.